createdAt,value
2022-11-26T00:01:45.051Z,98388.72
2022-11-26T00:04:15.890Z,98394.00
2022-11-26T00:06:44.987Z,98396.84
2022-11-26T00:09:19.871Z,98398.31
2022-11-26T00:11:47.373Z,98401.94
2022-11-26T00:14:15.993Z,98405.59
2022-11-26T00:16:44.029Z,98400.31
2022-11-26T00:19:11.545Z,98405.16
2022-11-26T00:21:41.419Z,98406.78
2022-11-26T00:24:28.194Z,98406.16
2022-11-26T00:26:57.856Z,98418.38
2022-11-26T00:29:25.694Z,98415.09
2022-11-26T00:31:53.319Z,98409.63
2022-11-26T00:34:20.973Z,98405.97
2022-11-26T00:36:49.093Z,98427.78
2022-11-26T00:39:23.864Z,98426.13
2022-11-26T00:41:52.535Z,98427.59
2022-11-26T00:44:25.678Z,98423.47
2022-11-26T00:46:53.403Z,98420.03
2022-11-26T00:49:21.232Z,98431.78
2022-11-26T00:51:49.063Z,98433.00
2022-11-26T00:54:18.853Z,98438.75
2022-11-26T00:56:48.372Z,98434.72
2022-11-26T00:59:21.618Z,98444.22
2022-11-26T01:01:49.648Z,98454.34
2022-11-26T01:04:17.234Z,98451.53
2022-11-26T01:06:45.659Z,98452.50
2022-11-26T01:09:22.251Z,98459.09
2022-11-26T01:11:53.707Z,98460.66
2022-11-26T01:14:22.734Z,98458.63
2022-11-26T01:16:51.527Z,98456.34
2022-11-26T01:19:19.069Z,98466.75
2022-11-26T01:21:46.892Z,98469.03
2022-11-26T01:24:14.402Z,98468.84
2022-11-26T01:26:44.283Z,98476.16
2022-11-26T01:29:17.541Z,98476.97
2022-11-26T01:31:45.761Z,98478.63
2022-11-26T01:34:13.734Z,98475.81
2022-11-26T01:36:42.502Z,98478.81
2022-11-26T01:39:09.932Z,98481.47
2022-11-26T01:41:44.893Z,98486.38
2022-11-26T01:44:22.635Z,98487.38
2022-11-26T01:46:51.490Z,98485.94
2022-11-26T01:49:38.804Z,98484.91
2022-11-26T01:52:30.092Z,98487.56
2022-11-26T01:54:57.765Z,98485.94
2022-11-26T01:57:29.973Z,98491.59
2022-11-26T02:00:01.662Z,98493.94
2022-11-26T02:02:40.555Z,98493.50
2022-11-26T02:05:24.761Z,98500.44
2022-11-26T02:07:53.372Z,98496.31
2022-11-26T02:10:20.934Z,98506.53
2022-11-26T02:12:49.410Z,98501.53
2022-11-26T02:15:16.940Z,98502.91
2022-11-26T02:17:52.704Z,98504.09
2022-11-26T02:20:49.462Z,98504.53
2022-11-26T02:23:42.983Z,98500.25
2022-11-26T02:26:58.575Z,98514.47
2022-11-26T02:29:41.594Z,98522.03
2022-11-26T02:32:28.314Z,98511.91
2022-11-26T02:35:02.685Z,98517.56
2022-11-26T02:37:58.054Z,98518.06
2022-11-26T02:40:26.224Z,98522.50
2022-11-26T02:42:53.734Z,98520.16
2022-11-26T02:45:26.119Z,98529.00
2022-11-26T02:47:56.484Z,98528.16
2022-11-26T02:50:35.313Z,98531.66
2022-11-26T02:53:05.631Z,98527.69
2022-11-26T02:55:37.866Z,98532.00
2022-11-26T02:58:06.444Z,98529.53
2022-11-26T03:00:36.983Z,98543.94
2022-11-26T03:03:11.042Z,98537.00
2022-11-26T03:05:41.896Z,98548.88
2022-11-26T03:08:09.642Z,98551.81
2022-11-26T03:10:37.034Z,98548.88
2022-11-26T03:13:04.592Z,98549.81
2022-11-26T03:15:32.104Z,98556.91
2022-11-26T03:17:59.806Z,98560.19
2022-11-26T03:20:27.225Z,98560.56
2022-11-26T03:22:54.874Z,98564.69
2022-11-26T03:25:22.313Z,98573.78
2022-11-26T03:27:49.742Z,98571.97
2022-11-26T03:30:17.612Z,98571.97
2022-11-26T03:32:45.304Z,98579.09
2022-11-26T03:35:12.995Z,98579.28
2022-11-26T03:37:40.505Z,98585.19
2022-11-26T03:40:08.934Z,98584.38
2022-11-26T03:42:36.973Z,98590.22
2022-11-26T03:45:04.860Z,98593.69
2022-11-26T03:47:32.365Z,98592.88
2022-11-26T03:49:59.881Z,98591.88
2022-11-26T03:52:27.514Z,98599.97
2022-11-26T03:54:54.995Z,98602.59
2022-11-26T03:57:22.524Z,98606.63
2022-11-26T03:59:50.050Z,98616.75
2022-11-26T04:02:17.571Z,98614.75
2022-11-26T04:04:45.070Z,98617.22
2022-11-26T04:07:12.686Z,98625.16
2022-11-26T04:09:40.251Z,98619.56
2022-11-26T04:12:07.775Z,98628.16
2022-11-26T04:14:35.396Z,98628.34
2022-11-26T04:17:03.177Z,98622.03
2022-11-26T04:19:30.873Z,98620.41
2022-11-26T04:21:58.623Z,98628.84
2022-11-26T04:24:26.100Z,98632.16
2022-11-26T04:26:53.693Z,98629.69
2022-11-26T04:29:21.146Z,98632.69
2022-11-26T04:31:48.740Z,98635.31
2022-11-26T04:34:16.273Z,98631.69
2022-11-26T04:36:43.855Z,98646.72
2022-11-26T04:39:12.752Z,98649.88
2022-11-26T04:41:40.283Z,98649.50
2022-11-26T04:44:07.814Z,98647.84
2022-11-26T04:46:35.263Z,98654.16
2022-11-26T04:49:03.086Z,98659.44
2022-11-26T04:51:30.573Z,98658.06
2022-11-26T04:54:02.563Z,98671.13
2022-11-26T04:56:31.054Z,98672.63
2022-11-26T04:58:58.490Z,98675.06
2022-11-26T05:01:26.110Z,98669.78
2022-11-26T05:03:53.625Z,98680.00
2022-11-26T05:06:21.243Z,98682.84
2022-11-26T05:08:48.695Z,98682.19
2022-11-26T05:11:16.303Z,98688.28
2022-11-26T05:13:43.974Z,98688.13
2022-11-26T05:16:11.547Z,98686.59
2022-11-26T05:18:39.090Z,98697.34
2022-11-26T05:21:06.965Z,98695.06
2022-11-26T05:23:34.695Z,98699.53
2022-11-26T05:26:02.211Z,98696.69
2022-11-26T05:28:29.715Z,98703.66
2022-11-26T05:31:01.859Z,98708.09
2022-11-26T05:33:29.784Z,98706.81
2022-11-26T05:35:57.372Z,98712.94
2022-11-26T05:38:24.976Z,98711.81
2022-11-26T05:40:52.511Z,98712.81
2022-11-26T05:43:20.073Z,98723.25
2022-11-26T05:45:47.668Z,98719.03
2022-11-26T05:48:15.375Z,98726.97
2022-11-26T05:50:42.994Z,98724.69
2022-11-26T05:53:10.620Z,98731.66
2022-11-26T05:55:38.247Z,98728.81
2022-11-26T05:58:05.863Z,98736.75
2022-11-26T06:00:33.321Z,98744.34
2022-11-26T06:03:00.882Z,98741.81
2022-11-26T06:05:28.384Z,98741.34
2022-11-26T06:07:56.008Z,98744.81
2022-11-26T06:10:23.600Z,98741.19
2022-11-26T06:12:51.263Z,98753.59
2022-11-26T06:15:18.951Z,98749.75
2022-11-26T06:17:46.521Z,98758.88
2022-11-26T06:20:14.304Z,98757.88
2022-11-26T06:22:43.422Z,98758.69
2022-11-26T06:25:14.236Z,98770.44
2022-11-26T06:27:42.611Z,98773.22
2022-11-26T06:30:11.795Z,98764.47
2022-11-26T06:32:39.285Z,98773.06
2022-11-26T06:35:07.030Z,98773.22
2022-11-26T06:37:34.612Z,98774.41
2022-11-26T06:40:02.605Z,98781.84
2022-11-26T06:42:30.203Z,98787.28
2022-11-26T06:44:59.935Z,98785.63
2022-11-26T06:47:28.206Z,98793.22
2022-11-26T06:49:55.769Z,98794.88
2022-11-26T06:52:23.291Z,98801.28
2022-11-26T06:54:51.126Z,98804.81
2022-11-26T06:57:18.644Z,98798.84
2022-11-26T06:59:46.169Z,98804.16
2022-11-26T07:02:13.787Z,98815.06
2022-11-26T07:04:41.621Z,98813.41
2022-11-26T07:07:09.559Z,98812.06
2022-11-26T07:09:37.063Z,98816.06
2022-11-26T07:12:04.699Z,98819.34
2022-11-26T07:14:32.344Z,98818.72
2022-11-26T07:16:59.877Z,98828.28
2022-11-26T07:19:27.408Z,98831.75
2022-11-26T07:21:54.966Z,98835.88
2022-11-26T07:24:22.503Z,98840.00
2022-11-26T07:26:50.019Z,98843.81
2022-11-26T07:29:17.635Z,98840.16
2022-11-26T07:31:45.225Z,98834.38
2022-11-26T07:34:12.770Z,98839.53
2022-11-26T07:36:43.353Z,98847.13
2022-11-26T07:39:12.129Z,98851.75
2022-11-26T07:41:39.745Z,98853.06
2022-11-26T07:44:07.204Z,98852.34
2022-11-26T07:46:34.727Z,98859.81
2022-11-26T07:49:02.229Z,98860.50
2022-11-26T07:51:31.689Z,98863.28
2022-11-26T07:54:03.274Z,98871.91
2022-11-26T07:56:30.882Z,98873.19
2022-11-26T07:58:58.744Z,98863.13
2022-11-26T08:01:29.892Z,98865.59
2022-11-26T08:03:59.327Z,98865.06
2022-11-26T08:06:29.869Z,98867.22
2022-11-26T08:08:59.876Z,98870.38
2022-11-26T08:11:29.210Z,98872.22
2022-11-26T08:14:01.740Z,98874.84
2022-11-26T08:16:29.507Z,98879.84
2022-11-26T08:18:58.425Z,98881.47
2022-11-26T08:21:26.935Z,98896.16
2022-11-26T08:23:55.476Z,98887.97
2022-11-26T08:26:31.412Z,98887.44
2022-11-26T08:29:00.689Z,98897.56
2022-11-26T08:31:28.632Z,98899.69
2022-11-26T08:33:58.145Z,98900.16
2022-11-26T08:36:28.351Z,98901.66
2022-11-26T08:38:56.050Z,98909.75
2022-11-26T08:41:23.568Z,98904.66
2022-11-26T08:44:06.120Z,98906.31
2022-11-26T08:46:34.883Z,98911.28
2022-11-26T08:49:02.573Z,98917.41
2022-11-26T08:51:30.085Z,98909.31
2022-11-26T08:53:57.510Z,98911.59
2022-11-26T08:56:25.056Z,98906.09
2022-11-26T08:58:52.671Z,98917.03
2022-11-26T09:01:26.894Z,98915.00
2022-11-26T09:03:58.056Z,98922.00
2022-11-26T09:06:27.939Z,98922.19
2022-11-26T09:09:14.493Z,98923.31
2022-11-26T09:11:49.800Z,98928.69
2022-11-26T09:14:20.600Z,98924.16
2022-11-26T09:16:48.289Z,98922.44
2022-11-26T09:19:16.475Z,98925.78
2022-11-26T09:21:45.241Z,98931.03
2022-11-26T09:24:13.269Z,98930.19
2022-11-26T09:26:41.163Z,98930.31
2022-11-26T09:29:12.779Z,98939.84
2022-11-26T09:32:00.623Z,98933.66
2022-11-26T09:34:27.845Z,98937.06
2022-11-26T09:36:55.429Z,98935.16
2022-11-26T09:39:23.009Z,98939.72
2022-11-26T09:42:04.320Z,98931.75
2022-11-26T09:45:12.573Z,98936.50
2022-11-26T09:47:43.568Z,98939.72
2022-11-26T09:50:10.983Z,98937.94
2022-11-26T09:53:03.512Z,98938.78
2022-11-26T09:55:33.828Z,98942.41
2022-11-26T09:58:16.431Z,98947.91
2022-11-26T10:00:50.403Z,98939.66
2022-11-26T10:03:23.507Z,98942.06
2022-11-26T10:05:56.772Z,98948.31
2022-11-26T10:08:45.730Z,98945.53
2022-11-26T10:11:31.293Z,98953.97
2022-11-26T10:14:23.514Z,98955.91
2022-11-26T10:17:21.598Z,98955.72
2022-11-26T10:20:14.089Z,98950.47
2022-11-26T10:23:02.889Z,98944.66
2022-11-26T10:25:39.410Z,98954.25
2022-11-26T10:28:18.410Z,98952.78
2022-11-26T10:30:51.598Z,98951.13
2022-11-26T10:33:20.701Z,98958.34
2022-11-26T10:35:50.050Z,98955.41
2022-11-26T10:38:17.920Z,98954.50
2022-11-26T10:40:45.401Z,98965.13
2022-11-26T10:43:22.423Z,98963.28
2022-11-26T10:45:52.488Z,98966.88
2022-11-26T10:48:22.414Z,98957.34
2022-11-26T10:51:02.000Z,98968.94
2022-11-26T10:53:34.991Z,98963.81
2022-11-26T10:56:07.274Z,98966.94
2022-11-26T10:58:42.978Z,98965.81
2022-11-26T11:01:14.517Z,98970.59
2022-11-26T11:04:13.855Z,98965.16
2022-11-26T11:06:43.480Z,98967.59
2022-11-26T11:09:23.165Z,98976.53
2022-11-26T11:12:08.402Z,98978.56
2022-11-26T11:14:41.091Z,98979.91
2022-11-26T11:17:29.700Z,98977.09
2022-11-26T11:20:11.800Z,98980.66
2022-11-26T11:22:39.368Z,98980.31
2022-11-26T11:25:21.481Z,98981.94
2022-11-26T11:27:49.710Z,98985.91
2022-11-26T11:30:25.839Z,98990.69
2022-11-26T11:32:57.712Z,98991.22
2022-11-26T11:35:30.410Z,98994.06
2022-11-26T11:37:58.888Z,99004.91
2022-11-26T11:40:30.494Z,99008.66
2022-11-26T11:43:01.877Z,99011.97
2022-11-26T11:45:34.590Z,99003.00
2022-11-26T11:48:28.794Z,99006.84
2022-11-26T11:51:08.580Z,99005.66
2022-11-26T11:54:11.190Z,99009.44
2022-11-26T11:56:48.920Z,99012.19
2022-11-26T11:59:19.450Z,99019.63
2022-11-26T12:01:59.278Z,99020.16
2022-11-26T12:04:45.246Z,99012.34
2022-11-26T12:07:29.747Z,99009.84
2022-11-26T12:10:05.536Z,99014.63
2022-11-26T12:12:37.396Z,99010.97
2022-11-26T12:15:13.193Z,99012.50
2022-11-26T12:17:55.566Z,99014.44
2022-11-26T12:20:27.700Z,99012.09
2022-11-26T12:23:09.025Z,99008.41
2022-11-26T12:25:39.837Z,99008.63
2022-11-26T12:28:18.294Z,99006.94
2022-11-26T12:31:30.011Z,99015.44
2022-11-26T12:34:16.947Z,99011.00
2022-11-26T12:36:51.331Z,99007.25
2022-11-26T12:39:24.490Z,99005.09
2022-11-26T12:42:19.949Z,99005.44
2022-11-26T12:44:51.876Z,99013.66
2022-11-26T12:47:30.601Z,99010.19
2022-11-26T12:50:24.067Z,99024.28
2022-11-26T12:53:12.629Z,99018.16
2022-11-26T12:55:52.870Z,99025.59
2022-11-26T12:58:24.500Z,99028.88
2022-11-26T13:00:55.788Z,99026.56
2022-11-26T13:03:33.827Z,99025.59
2022-11-26T13:06:13.043Z,99028.59
2022-11-26T13:09:36.277Z,99024.63
2022-11-26T13:12:09.550Z,99024.06
2022-11-26T13:15:12.209Z,99025.22
2022-11-26T13:17:51.039Z,99025.06
2022-11-26T13:20:43.456Z,99022.88
2022-11-26T13:23:27.396Z,99024.50
2022-11-26T13:26:13.651Z,99030.63
2022-11-26T13:29:02.979Z,99039.06
2022-11-26T13:32:09.908Z,99030.63
2022-11-26T13:34:59.142Z,99034.31
2022-11-26T13:37:44.696Z,99037.13
2022-11-26T13:40:35.162Z,99041.31
2022-11-26T13:43:40.098Z,99041.00
2022-11-26T13:46:07.607Z,99036.88
2022-11-26T13:48:45.693Z,99038.06
2022-11-26T13:51:31.186Z,99041.53
2022-11-26T13:54:06.619Z,99037.69
2022-11-26T13:56:37.350Z,99040.81
2022-11-26T13:59:28.592Z,99032.41
2022-11-26T14:01:56.764Z,99040.06
2022-11-26T14:04:24.198Z,99043.53
2022-11-26T14:07:03.996Z,99036.75
2022-11-26T14:09:44.485Z,99043.56
2022-11-26T14:12:16.681Z,99043.41
2022-11-26T14:14:49.210Z,99050.53
2022-11-26T14:17:32.416Z,99048.72
2022-11-26T14:20:02.318Z,99047.75
2022-11-26T14:22:32.797Z,99049.72
2022-11-26T14:25:03.319Z,99052.38
2022-11-26T14:27:30.783Z,99050.59
2022-11-26T14:30:06.952Z,99052.56
2022-11-26T14:32:41.135Z,99047.63
2022-11-26T14:35:36.229Z,99055.38
2022-11-26T14:38:06.263Z,99058.56
2022-11-26T14:40:38.430Z,99052.25
2022-11-26T14:43:24.129Z,99048.13
2022-11-26T14:46:12.564Z,99057.09
2022-11-26T14:48:49.759Z,99055.44
2022-11-26T14:51:23.425Z,99055.31
2022-11-26T14:53:51.831Z,99055.66
2022-11-26T14:56:21.717Z,99053.34
2022-11-26T14:58:54.009Z,99064.44
2022-11-26T15:01:24.570Z,99064.00
2022-11-26T15:03:59.932Z,99057.53
2022-11-26T15:06:38.581Z,99065.81
2022-11-26T15:09:15.548Z,99060.22
2022-11-26T15:11:50.677Z,99061.53
2022-11-26T15:14:29.968Z,99066.53
2022-11-26T15:17:02.910Z,99059.06
2022-11-26T15:19:36.336Z,99064.72
2022-11-26T15:22:07.967Z,99060.41
2022-11-26T15:24:36.404Z,99067.72
2022-11-26T15:27:03.999Z,99073.34
2022-11-26T15:29:37.421Z,99075.34
2022-11-26T15:32:05.189Z,99068.56
2022-11-26T15:34:33.409Z,99083.13
2022-11-26T15:37:01.049Z,99076.47
2022-11-26T15:39:31.389Z,99083.09
2022-11-26T15:42:04.849Z,99083.75
2022-11-26T15:44:42.391Z,99086.56
2022-11-26T15:47:20.631Z,99083.59
2022-11-26T15:49:52.929Z,99082.75
2022-11-26T15:52:32.999Z,99081.75
2022-11-26T15:55:12.357Z,99082.44
2022-11-26T15:57:42.261Z,99082.44
2022-11-26T16:00:30.760Z,99079.78
2022-11-26T16:02:58.445Z,99084.25
2022-11-26T16:05:39.500Z,99072.50
2022-11-26T16:08:30.469Z,99085.25
2022-11-26T16:11:06.781Z,99082.38
2022-11-26T16:13:36.191Z,99084.38
2022-11-26T16:16:21.851Z,99078.44
2022-11-26T16:19:00.410Z,99080.75
2022-11-26T16:21:32.413Z,99080.59
2022-11-26T16:24:05.722Z,99086.03
2022-11-26T16:26:52.771Z,99080.59
2022-11-26T16:29:20.306Z,99081.09
2022-11-26T16:31:47.710Z,99075.81
2022-11-26T16:34:15.230Z,99082.91
2022-11-26T16:36:43.261Z,99085.38
2022-11-26T16:39:15.050Z,99090.84
2022-11-26T16:41:43.475Z,99085.38
2022-11-26T16:44:10.987Z,99083.75
2022-11-26T16:46:38.897Z,99090.34
2022-11-26T16:49:06.731Z,99083.09
2022-11-26T16:51:34.240Z,99084.91
2022-11-26T16:54:01.851Z,99084.72
2022-11-26T16:56:40.103Z,99083.41
2022-11-26T16:59:18.527Z,99083.06
2022-11-26T17:01:46.491Z,99089.72
2022-11-26T17:04:14.724Z,99096.31
2022-11-26T17:06:43.409Z,99096.00
2022-11-26T17:09:17.809Z,99099.13
2022-11-26T17:11:45.846Z,99105.91
2022-11-26T17:14:13.446Z,99104.94
2022-11-26T17:16:41.224Z,99095.00
2022-11-26T17:19:14.040Z,99096.81
2022-11-26T17:21:41.539Z,99104.44
2022-11-26T17:24:09.342Z,99111.72
2022-11-26T17:26:36.920Z,99113.50
2022-11-26T17:29:04.577Z,99113.03
2022-11-26T17:31:32.165Z,99110.84
2022-11-26T17:33:59.720Z,99113.19
2022-11-26T17:36:27.359Z,99111.38
2022-11-26T17:38:54.990Z,99107.06
2022-11-26T17:41:22.479Z,99105.56
2022-11-26T17:43:50.051Z,99108.88
2022-11-26T17:46:20.467Z,99109.91
2022-11-26T17:48:49.369Z,99115.50
2022-11-26T17:51:17.329Z,99114.66
2022-11-26T17:53:45.199Z,99112.56
2022-11-26T17:56:18.849Z,99112.69
2022-11-26T17:58:46.909Z,99118.47
2022-11-26T18:01:15.895Z,99120.13
2022-11-26T18:03:43.884Z,99119.31
2022-11-26T18:06:16.601Z,99124.25
2022-11-26T18:08:44.976Z,99131.69
2022-11-26T18:11:14.356Z,99128.22
2022-11-26T18:13:41.871Z,99134.66
2022-11-26T18:16:09.359Z,99131.19
2022-11-26T18:18:36.849Z,99141.94
2022-11-26T18:21:05.062Z,99132.53
2022-11-26T18:23:32.879Z,99137.31
2022-11-26T18:26:00.969Z,99133.84
2022-11-26T18:28:28.780Z,99138.16
2022-11-26T18:30:59.910Z,99149.72
2022-11-26T18:33:27.528Z,99151.19
2022-11-26T18:35:55.017Z,99150.03
2022-11-26T18:38:22.630Z,99148.53
2022-11-26T18:40:59.837Z,99153.69
2022-11-26T18:43:27.410Z,99147.56
2022-11-26T18:45:54.890Z,99149.38
2022-11-26T18:48:22.446Z,99149.53
2022-11-26T18:50:59.799Z,99149.53
2022-11-26T18:53:28.317Z,99153.00
2022-11-26T18:55:57.118Z,99155.66
2022-11-26T18:58:25.464Z,99147.22
2022-11-26T19:00:58.784Z,99156.78
2022-11-26T19:03:27.610Z,99157.16
2022-11-26T19:05:55.390Z,99146.88
2022-11-26T19:08:24.049Z,99146.38
2022-11-26T19:10:51.774Z,99136.81
2022-11-26T19:13:19.241Z,99145.22
2022-11-26T19:15:46.710Z,99143.41
2022-11-26T19:18:14.786Z,99137.59
2022-11-26T19:20:50.432Z,99144.03
2022-11-26T19:23:24.120Z,99141.56
2022-11-26T19:25:52.029Z,99136.28
2022-11-26T19:28:19.698Z,99147.19
2022-11-26T19:31:01.109Z,99143.72
2022-11-26T19:33:28.811Z,99145.50
2022-11-26T19:35:56.810Z,99146.38
2022-11-26T19:38:24.838Z,99145.50
2022-11-26T19:40:59.730Z,99146.38
2022-11-26T19:47:33.366Z,99151.66
2022-11-26T19:50:00.838Z,99151.66
2022-11-26T19:52:28.342Z,99148.00
2022-11-26T19:54:55.891Z,99150.97
2022-11-26T19:57:23.375Z,99149.16
2022-11-26T19:59:51.446Z,99144.03
2022-11-26T20:02:18.984Z,99144.50
2022-11-26T20:04:46.426Z,99142.88
2022-11-26T20:07:13.888Z,99142.69
2022-11-26T20:09:41.649Z,99142.88
2022-11-26T20:12:09.371Z,99147.34
2022-11-26T20:14:36.826Z,99144.38
2022-11-26T20:17:04.539Z,99147.66
2022-11-26T20:19:32.174Z,99147.66
2022-11-26T20:21:59.702Z,99146.00
2022-11-26T20:24:27.169Z,99151.13
2022-11-26T20:26:54.736Z,99150.78
2022-11-26T20:29:23.075Z,99150.47
2022-11-26T20:31:52.154Z,99148.78
2022-11-26T20:34:24.715Z,99145.50
2022-11-26T20:36:52.656Z,99146.66
2022-11-26T20:39:21.997Z,99142.69
2022-11-26T20:41:50.002Z,99138.53
2022-11-26T20:44:17.607Z,99136.03
2022-11-26T20:46:45.093Z,99136.88
2022-11-26T20:49:12.637Z,99132.91
2022-11-26T20:51:40.276Z,99130.13
2022-11-26T20:54:07.764Z,99129.13
2022-11-26T20:56:35.365Z,99127.47
2022-11-26T20:59:02.896Z,99129.94
2022-11-26T21:01:31.678Z,99137.03
2022-11-26T21:03:59.979Z,99132.06
2022-11-26T21:06:30.581Z,99134.72
2022-11-26T21:09:03.709Z,99133.91
2022-11-26T21:11:31.682Z,99128.94
2022-11-26T21:14:01.658Z,99123.78
2022-11-26T21:16:30.684Z,99123.97
2022-11-26T21:18:58.842Z,99127.91
2022-11-26T21:21:28.135Z,99121.28
2022-11-26T21:23:57.372Z,99124.56
2022-11-26T21:26:26.587Z,99124.19
2022-11-26T21:28:56.184Z,99126.50
2022-11-26T21:31:24.500Z,99123.66
2022-11-26T21:33:58.047Z,99124.44
2022-11-26T21:36:26.522Z,99125.91
2022-11-26T21:38:54.405Z,99131.97
2022-11-26T21:41:23.016Z,99125.19
2022-11-26T21:43:51.235Z,99122.19
2022-11-26T21:46:24.001Z,99131.94
2022-11-26T21:48:53.097Z,99130.28
2022-11-26T21:51:21.446Z,99135.38
2022-11-26T21:53:49.969Z,99125.44
2022-11-26T21:56:20.361Z,99132.53
2022-11-26T21:58:48.563Z,99130.22
2022-11-26T22:01:23.050Z,99126.75
2022-11-26T22:03:52.842Z,99135.81
2022-11-26T22:06:21.677Z,99132.47
2022-11-26T22:08:49.864Z,99130.16
2022-11-26T22:11:38.966Z,99140.03
2022-11-26T22:14:08.027Z,99148.50
2022-11-26T22:16:35.824Z,99143.88
2022-11-26T22:19:05.126Z,99140.91
2022-11-26T22:21:39.316Z,99151.78
2022-11-26T22:24:10.427Z,99152.78
2022-11-26T22:26:38.076Z,99156.25
2022-11-26T22:29:06.221Z,99155.09
2022-11-26T22:31:38.598Z,99146.06
2022-11-26T22:34:10.154Z,99149.50
2022-11-26T22:36:38.594Z,99144.69
2022-11-26T22:39:10.967Z,99146.50
2022-11-26T22:41:40.646Z,99141.91
2022-11-26T22:44:08.308Z,99152.28
2022-11-26T22:46:38.409Z,99148.53
2022-11-26T22:49:07.182Z,99157.50
2022-11-26T22:51:35.724Z,99157.19
2022-11-26T22:54:07.083Z,99159.00
2022-11-26T22:56:38.005Z,99150.78
2022-11-26T22:59:07.240Z,99152.03
2022-11-26T23:01:36.631Z,99145.63
2022-11-26T23:04:07.312Z,99148.44
2022-11-26T23:06:35.815Z,99157.19
2022-11-26T23:09:05.906Z,99153.56
2022-11-26T23:11:37.624Z,99150.78
2022-11-26T23:14:07.609Z,99153.41
2022-11-26T23:16:37.120Z,99151.91
2022-11-26T23:19:04.953Z,99158.31
2022-11-26T23:21:35.655Z,99152.03
2022-11-26T23:24:03.248Z,99156.06
2022-11-26T23:26:33.018Z,99150.09
2022-11-26T23:29:02.414Z,99157.69
2022-11-26T23:31:36.932Z,99158.53
2022-11-26T23:34:05.701Z,99156.88
2022-11-26T23:36:34.368Z,99158.53
2022-11-26T23:39:04.268Z,99164.31
2022-11-26T23:41:31.926Z,99166.81
2022-11-26T23:43:59.427Z,99168.47
2022-11-26T23:46:29.678Z,99157.59
2022-11-26T23:48:57.798Z,99160.41
2022-11-26T23:51:28.227Z,99159.72
2022-11-26T23:53:56.078Z,99154.25
2022-11-26T23:56:26.457Z,99156.75
2022-11-26T23:58:56.413Z,99160.22
